createdAt,value
2022-08-17T00:00:43.800Z,50.17
2022-08-17T00:03:20.960Z,49.95
2022-08-17T00:06:00.170Z,49.65
2022-08-17T00:08:32.877Z,49.78
2022-08-17T00:11:02.389Z,49.86
2022-08-17T00:13:37.789Z,50.07
2022-08-17T00:16:11.516Z,50.08
2022-08-17T00:19:06.357Z,50.13
2022-08-17T00:22:28.666Z,49.98
2022-08-17T00:24:19.591Z,49.76
2022-08-17T00:26:47.693Z,47.99
2022-08-17T00:29:20.040Z,49.37
2022-08-17T00:31:49.897Z,49.98
2022-08-17T00:34:36.702Z,49.88
2022-08-17T00:37:05.455Z,50.18
2022-08-17T00:39:34.190Z,50.26
2022-08-17T00:42:02.397Z,50.06
2022-08-17T00:44:31.248Z,50.63
2022-08-17T00:46:59.285Z,50.01
2022-08-17T00:49:29.967Z,48.42
2022-08-17T00:52:10.859Z,49.93
2022-08-17T00:54:43.865Z,50.01
2022-08-17T00:57:29.359Z,50.25
2022-08-17T01:00:06.938Z,50.80
2022-08-17T01:02:42.101Z,50.61
2022-08-17T01:05:17.216Z,50.65
2022-08-17T01:07:51.133Z,50.85
2022-08-17T01:11:00.533Z,50.63
2022-08-17T01:13:13.876Z,50.71
2022-08-17T01:15:47.717Z,50.80
2022-08-17T01:18:16.948Z,50.28
2022-08-17T01:20:51.071Z,50.79
2022-08-17T01:23:23.648Z,50.37
2022-08-17T01:25:56.752Z,50.84
2022-08-17T01:28:36.389Z,50.98
2022-08-17T01:31:17.337Z,50.60
2022-08-17T01:34:03.866Z,50.72
2022-08-17T01:36:32.695Z,50.74
2022-08-17T01:39:01.061Z,51.14
2022-08-17T01:41:29.818Z,50.54
2022-08-17T01:44:04.726Z,51.13
2022-08-17T01:46:36.454Z,50.90
2022-08-17T01:49:10.581Z,51.48
2022-08-17T01:51:39.311Z,51.40
2022-08-17T01:54:13.148Z,51.26
2022-08-17T01:56:47.563Z,51.40
2022-08-17T01:59:18.785Z,51.73
2022-08-17T02:01:48.465Z,51.53
2022-08-17T02:04:17.462Z,51.13
2022-08-17T02:06:53.074Z,51.72
2022-08-17T02:09:26.045Z,51.37
2022-08-17T02:11:56.721Z,51.01
2022-08-17T02:14:26.058Z,51.28
2022-08-17T02:16:54.808Z,51.09
2022-08-17T02:19:23.401Z,51.22
2022-08-17T02:21:53.663Z,51.13
2022-08-17T02:24:59.843Z,51.62
2022-08-17T02:27:16.403Z,50.89
2022-08-17T02:29:44.893Z,51.30
2022-08-17T02:32:27.171Z,51.66
2022-08-17T02:34:58.373Z,51.21
2022-08-17T02:37:31.488Z,51.11
2022-08-17T02:40:00.790Z,51.12
2022-08-17T02:42:35.909Z,51.12
2022-08-17T02:45:06.856Z,51.25
2022-08-17T02:47:36.120Z,50.92
2022-08-17T02:50:06.948Z,51.73
2022-08-17T02:52:42.646Z,51.37
2022-08-17T02:55:30.152Z,51.09
2022-08-17T02:57:58.815Z,50.60
2022-08-17T03:00:34.450Z,51.52
2022-08-17T03:03:05.786Z,50.99
2022-08-17T03:05:35.922Z,51.47
2022-08-17T03:08:06.288Z,51.01
2022-08-17T03:10:35.321Z,50.82
2022-08-17T03:13:04.775Z,50.82
2022-08-17T03:15:35.488Z,50.44
2022-08-17T03:18:06.206Z,50.24
2022-08-17T03:20:37.345Z,50.43
2022-08-17T03:23:07.276Z,50.57
2022-08-17T03:25:44.945Z,50.83
2022-08-17T03:28:14.259Z,50.64
2022-08-17T03:30:42.972Z,50.25
2022-08-17T03:33:11.534Z,50.60
2022-08-17T03:35:41.362Z,50.05
2022-08-17T03:38:11.936Z,50.51
2022-08-17T03:40:58.108Z,49.84
2022-08-17T03:43:34.302Z,49.87
2022-08-17T03:46:27.845Z,49.99
2022-08-17T03:49:19.597Z,49.79
2022-08-17T03:52:06.232Z,50.27
2022-08-17T03:54:53.301Z,49.85
2022-08-17T03:57:23.167Z,49.71
2022-08-17T03:59:52.234Z,50.20
2022-08-17T04:02:39.419Z,49.90
2022-08-17T04:05:09.740Z,49.63
2022-08-17T04:07:38.043Z,49.69
2022-08-17T04:10:06.970Z,49.93
2022-08-17T04:12:51.791Z,49.52
2022-08-17T04:15:20.183Z,49.95
2022-08-17T04:17:48.835Z,49.73
2022-08-17T04:20:18.888Z,49.58
2022-08-17T04:23:18.310Z,48.88
2022-08-17T04:25:49.601Z,49.54
2022-08-17T04:28:20.172Z,49.77
2022-08-17T04:30:48.604Z,49.87
2022-08-17T04:33:20.228Z,50.11
2022-08-17T04:35:50.866Z,49.77
2022-08-17T04:38:22.735Z,49.64
2022-08-17T04:41:10.881Z,49.41
2022-08-17T04:43:43.102Z,49.41
2022-08-17T04:46:17.958Z,49.74
2022-08-17T04:48:50.787Z,49.14
2022-08-17T04:51:29.170Z,48.83
2022-08-17T04:54:19.340Z,48.09
2022-08-17T04:56:48.166Z,48.45
2022-08-17T04:59:23.128Z,48.02
2022-08-17T05:01:52.498Z,48.34
2022-08-17T05:04:34.050Z,48.29
2022-08-17T05:07:04.874Z,47.66
2022-08-17T05:09:34.915Z,46.95
2022-08-17T05:12:04.701Z,46.46
2022-08-17T05:14:33.898Z,46.47
2022-08-17T05:17:09.412Z,46.39
2022-08-17T05:19:39.394Z,46.24
2022-08-17T05:22:08.146Z,46.15
2022-08-17T05:24:42.644Z,46.49
2022-08-17T05:27:23.475Z,46.07
2022-08-17T05:29:51.883Z,45.19
2022-08-17T05:32:39.110Z,45.08
2022-08-17T05:35:11.290Z,45.32
2022-08-17T05:37:41.163Z,45.66
2022-08-17T05:40:11.788Z,45.63
2022-08-17T05:42:40.190Z,45.54
2022-08-17T05:45:09.679Z,45.66
2022-08-17T05:47:41.498Z,46.28
2022-08-17T05:50:13.828Z,45.71
2022-08-17T05:53:19.539Z,45.27
2022-08-17T05:56:29.703Z,45.29
2022-08-17T05:59:31.281Z,45.47
2022-08-17T06:02:16.599Z,45.57
2022-08-17T06:05:03.183Z,45.34
2022-08-17T06:07:58.009Z,45.84
2022-08-17T06:11:06.016Z,45.90
2022-08-17T06:14:11.875Z,45.74
2022-08-17T06:16:45.317Z,45.98
2022-08-17T06:19:24.532Z,45.18
2022-08-17T06:21:55.630Z,45.62
2022-08-17T06:24:24.148Z,45.72
2022-08-17T06:26:53.230Z,45.65
2022-08-17T06:29:41.810Z,45.62
2022-08-17T06:32:13.190Z,46.43
2022-08-17T06:34:43.953Z,46.16
2022-08-17T06:37:56.016Z,45.96
2022-08-17T06:40:56.633Z,46.61
2022-08-17T06:43:33.399Z,44.35
2022-08-17T06:46:17.201Z,45.25
2022-08-17T06:49:08.924Z,44.01
2022-08-17T06:51:53.463Z,42.30
2022-08-17T06:54:51.274Z,41.46
2022-08-17T06:57:25.476Z,39.32
2022-08-17T07:00:16.921Z,39.25
2022-08-17T07:03:07.274Z,38.00
2022-08-17T07:05:54.202Z,37.36
2022-08-17T07:08:48.350Z,36.69
2022-08-17T07:11:30.411Z,36.77
2022-08-17T07:14:29.852Z,37.01
2022-08-17T07:17:04.947Z,37.13
2022-08-17T07:19:35.403Z,36.92
2022-08-17T07:22:30.808Z,37.19
2022-08-17T07:25:20.869Z,38.29
2022-08-17T07:27:53.055Z,38.54
2022-08-17T07:30:23.335Z,38.77
2022-08-17T07:32:57.677Z,39.13
2022-08-17T07:35:37.534Z,38.84
2022-08-17T07:38:26.805Z,38.93
2022-08-17T07:41:02.329Z,38.92
2022-08-17T07:43:34.548Z,39.47
2022-08-17T07:46:30.510Z,39.92
2022-08-17T07:49:03.643Z,39.60
2022-08-17T07:51:37.613Z,40.03
2022-08-17T07:54:23.536Z,40.18
2022-08-17T07:57:09.119Z,39.46
2022-08-17T07:59:41.276Z,41.57
2022-08-17T08:02:15.119Z,44.56
2022-08-17T08:05:30.008Z,45.05
2022-08-17T08:08:42.614Z,44.78
2022-08-17T08:11:28.684Z,47.73
2022-08-17T08:14:29.805Z,52.05
2022-08-17T08:17:06.414Z,61.20
2022-08-17T08:19:39.047Z,62.46
2022-08-17T08:22:21.300Z,63.99
2022-08-17T08:25:22.515Z,65.52
